createdAt,value
2023-07-04T00:01:50.397Z,100576.50
2023-07-04T00:04:21.058Z,100569.34
2023-07-04T00:06:47.901Z,100563.00
2023-07-04T00:09:16.447Z,100563.00
2023-07-04T00:11:43.113Z,100565.94
2023-07-04T00:14:10.442Z,100561.31
2023-07-04T00:16:37.432Z,100565.09
2023-07-04T00:19:04.340Z,100564.28
2023-07-04T00:21:31.322Z,100578.00
2023-07-04T00:23:57.976Z,100578.81
2023-07-04T00:26:27.410Z,100578.81
2023-07-04T00:28:54.882Z,100575.25
2023-07-04T00:31:23.385Z,100574.59
2023-07-04T00:33:50.164Z,100576.50
2023-07-04T00:36:18.772Z,100571.00
2023-07-04T00:38:47.068Z,100569.97
2023-07-04T00:41:16.059Z,100566.38
2023-07-04T00:43:49.587Z,100564.50
2023-07-04T00:46:16.862Z,100560.91
2023-07-04T00:48:44.779Z,100569.97
2023-07-04T00:51:12.744Z,100568.50
2023-07-04T00:53:39.460Z,100568.50
2023-07-04T00:56:06.688Z,100564.28
2023-07-04T00:58:33.381Z,100564.72
2023-07-04T01:01:01.427Z,100564.72
2023-07-04T01:03:28.653Z,100558.56
2023-07-04T01:06:01.787Z,100562.38
2023-07-04T01:08:37.228Z,100558.81
2023-07-04T01:11:08.900Z,100563.44
2023-07-04T01:13:37.607Z,100551.84
2023-07-04T01:16:08.885Z,100553.72
2023-07-04T01:18:36.459Z,100556.69
2023-07-04T01:21:04.182Z,100555.00
2023-07-04T01:23:39.649Z,100550.56
2023-07-04T01:26:31.120Z,100549.97
2023-07-04T01:28:59.760Z,100550.31
2023-07-04T01:31:28.120Z,100548.66
2023-07-04T01:33:55.421Z,100552.44
2023-07-04T01:36:24.337Z,100556.44
2023-07-04T01:38:51.033Z,100556.44
2023-07-04T01:41:17.914Z,100567.63
2023-07-04T01:43:51.017Z,100563.81
2023-07-04T01:46:17.968Z,100571.41
2023-07-04T01:48:44.714Z,100562.56
2023-07-04T01:51:11.656Z,100565.28
2023-07-04T01:53:38.330Z,100565.28
2023-07-04T01:56:05.466Z,100560.66
2023-07-04T01:58:32.255Z,100563.41
2023-07-04T02:01:00.470Z,100561.69
2023-07-04T02:03:27.238Z,100557.06
2023-07-04T02:05:57.755Z,100553.28
2023-07-04T02:08:24.488Z,100557.91
2023-07-04T02:10:51.536Z,100561.69
2023-07-04T02:13:18.613Z,100560.03
2023-07-04T02:15:45.405Z,100558.16
2023-07-04T02:18:13.501Z,100549.94
2023-07-04T02:20:40.282Z,100555.41
2023-07-04T02:23:07.097Z,100551.59
2023-07-04T02:25:33.734Z,100556.47
2023-07-04T02:28:00.493Z,100549.47
2023-07-04T02:30:27.146Z,100558.53
2023-07-04T02:32:53.912Z,100553.06
2023-07-04T02:35:22.099Z,100559.63
2023-07-04T02:37:48.800Z,100559.63
2023-07-04T02:40:15.702Z,100553.50
2023-07-04T02:42:42.411Z,100545.72
2023-07-04T02:45:10.225Z,100558.75
2023-07-04T02:47:37.095Z,100556.44
2023-07-04T02:50:04.244Z,100569.72
2023-07-04T02:52:32.368Z,100566.34
2023-07-04T02:54:59.106Z,100556.66
2023-07-04T02:57:25.835Z,100563.19
2023-07-04T02:59:53.083Z,100563.38
2023-07-04T03:02:20.408Z,100558.97
2023-07-04T03:04:47.197Z,100565.50
2023-07-04T03:07:13.868Z,100566.72
2023-07-04T03:09:42.199Z,100569.47
2023-07-04T03:12:09.566Z,100573.06
2023-07-04T03:14:36.419Z,100582.97
2023-07-04T03:17:03.508Z,100574.75
2023-07-04T03:19:30.311Z,100587.59
2023-07-04T03:21:59.537Z,100583.81
2023-07-04T03:24:26.270Z,100583.81
2023-07-04T03:26:54.343Z,100595.19
2023-07-04T03:29:21.013Z,100583.38
2023-07-04T03:31:47.728Z,100583.38
2023-07-04T03:34:14.700Z,100585.09
2023-07-04T03:36:41.506Z,100589.94
2023-07-04T03:39:08.437Z,100585.94
2023-07-04T03:41:35.129Z,100588.28
2023-07-04T03:44:03.312Z,100597.75
2023-07-04T03:46:30.024Z,100600.06
2023-07-04T03:48:56.929Z,100595.84
2023-07-04T03:51:23.702Z,100608.09
2023-07-04T03:53:50.376Z,100603.88
2023-07-04T03:56:17.373Z,100601.38
2023-07-04T03:58:44.051Z,100605.72
2023-07-04T04:01:12.271Z,100604.03
2023-07-04T04:03:39.259Z,100608.88
2023-07-04T04:06:06.906Z,100608.50
2023-07-04T04:08:33.683Z,100603.69
2023-07-04T04:11:00.652Z,100613.44
2023-07-04T04:13:27.411Z,100613.75
2023-07-04T04:15:54.227Z,100624.19
2023-07-04T04:18:22.473Z,100622.53
2023-07-04T04:20:49.344Z,100624.94
2023-07-04T04:23:16.041Z,100629.28
2023-07-04T04:25:42.814Z,100621.31
2023-07-04T04:28:10.315Z,100632.72
2023-07-04T04:30:37.468Z,100643.22
2023-07-04T04:33:04.681Z,100650.09
2023-07-04T04:35:32.925Z,100648.03
2023-07-04T04:37:59.878Z,100643.22
2023-07-04T04:40:26.728Z,100663.81
2023-07-04T04:42:53.568Z,100661.28
2023-07-04T04:45:20.866Z,100668.13
2023-07-04T04:47:47.572Z,100672.81
2023-07-04T04:50:14.393Z,100669.81
2023-07-04T04:52:42.535Z,100678.72
2023-07-04T04:55:10.025Z,100680.44
2023-07-04T04:57:36.668Z,100683.84
2023-07-04T05:00:04.088Z,100672.50
2023-07-04T05:02:31.413Z,100683.16
2023-07-04T05:04:58.741Z,100684.50
2023-07-04T05:07:25.431Z,100685.59
2023-07-04T05:09:55.267Z,100703.56
2023-07-04T05:12:22.531Z,100709.91
2023-07-04T05:14:49.460Z,100715.88
2023-07-04T05:17:16.510Z,100717.09
2023-07-04T05:19:43.915Z,100711.81
2023-07-04T05:22:11.248Z,100725.28
2023-07-04T05:24:37.993Z,100725.88
2023-07-04T05:27:06.351Z,100723.69
2023-07-04T05:29:33.171Z,100722.38
2023-07-04T05:31:59.933Z,100733.38
2023-07-04T05:34:27.104Z,100725.84
2023-07-04T05:36:53.857Z,100732.47
2023-07-04T05:39:20.585Z,100741.25
2023-07-04T05:41:47.481Z,100745.69
2023-07-04T05:44:15.600Z,100740.06
2023-07-04T05:46:42.226Z,100721.94
2023-07-04T05:49:08.931Z,100716.44
2023-07-04T05:51:35.637Z,100732.94
2023-07-04T05:54:02.346Z,100740.09
2023-07-04T05:56:30.719Z,100748.94
2023-07-04T05:58:59.396Z,100746.56
2023-07-04T06:01:31.016Z,100754.34
2023-07-04T06:03:57.945Z,100768.25
2023-07-04T06:06:27.139Z,100765.47
2023-07-04T06:08:55.614Z,100766.97
2023-07-04T06:11:24.633Z,100756.00
2023-07-04T06:13:51.799Z,100758.09
2023-07-04T06:16:21.809Z,100754.41
2023-07-04T06:18:50.911Z,100744.34
2023-07-04T06:21:30.251Z,100748.44
2023-07-04T06:24:06.110Z,100747.94
2023-07-04T06:26:35.607Z,100757.78
2023-07-04T06:29:05.951Z,100754.50
2023-07-04T06:31:32.712Z,100742.34
2023-07-04T06:34:01.221Z,100748.22
2023-07-04T06:36:28.980Z,100750.41
2023-07-04T06:39:00.443Z,100763.28
2023-07-04T06:41:27.085Z,100763.84
2023-07-04T06:43:53.814Z,100761.06
2023-07-04T06:46:21.857Z,100764.09
2023-07-04T06:48:49.517Z,100767.41
2023-07-04T06:51:19.337Z,100760.34
2023-07-04T06:53:47.211Z,100774.38
2023-07-04T06:56:16.698Z,100780.66
2023-07-04T06:58:46.899Z,100770.78
2023-07-04T07:01:14.217Z,100775.66
2023-07-04T07:03:41.094Z,100784.16
2023-07-04T07:06:09.606Z,100792.59
2023-07-04T07:08:38.296Z,100787.84
2023-07-04T07:11:07.228Z,100794.13
2023-07-04T07:13:35.324Z,100791.72
2023-07-04T07:16:07.436Z,100795.28
2023-07-04T07:18:34.514Z,100797.34
2023-07-04T07:21:01.653Z,100794.28
2023-07-04T07:23:28.646Z,100801.53
2023-07-04T07:25:58.064Z,100801.53
2023-07-04T07:28:25.591Z,100800.16
2023-07-04T07:31:01.285Z,100808.22
2023-07-04T07:33:28.057Z,100803.66
2023-07-04T07:35:54.997Z,100807.63
2023-07-04T07:38:21.865Z,100815.47
2023-07-04T07:40:52.175Z,100809.81
2023-07-04T07:43:20.923Z,100802.59
2023-07-04T07:45:47.816Z,100807.41
2023-07-04T07:48:15.046Z,100810.88
2023-07-04T07:50:42.599Z,100803.06
2023-07-04T07:53:10.283Z,100807.53
2023-07-04T07:55:37.022Z,100805.69
2023-07-04T07:58:03.775Z,100815.91
2023-07-04T08:00:32.085Z,100807.63
2023-07-04T08:02:58.884Z,100820.66
2023-07-04T08:05:25.766Z,100816.22
2023-07-04T08:07:52.604Z,100822.34
2023-07-04T08:10:19.526Z,100818.75
2023-07-04T08:12:46.411Z,100815.88
2023-07-04T08:15:13.114Z,100809.09
2023-07-04T08:17:41.397Z,100824.00
2023-07-04T08:20:08.785Z,100816.22
2023-07-04T08:22:35.458Z,100821.72
2023-07-04T08:25:02.144Z,100823.69
2023-07-04T08:27:28.866Z,100823.09
2023-07-04T08:29:55.580Z,100828.06
2023-07-04T08:32:22.339Z,100834.34
2023-07-04T08:34:50.424Z,100826.53
2023-07-04T08:37:17.231Z,100820.38
2023-07-04T08:39:44.021Z,100826.75
2023-07-04T08:42:11.041Z,100825.44
2023-07-04T08:44:44.065Z,100828.81
2023-07-04T08:47:13.464Z,100828.69
2023-07-04T08:49:43.215Z,100820.06
2023-07-04T08:52:18.142Z,100835.31
2023-07-04T08:54:45.321Z,100825.09
2023-07-04T08:57:20.723Z,100837.81
2023-07-04T08:59:51.611Z,100835.41
2023-07-04T09:02:38.790Z,100828.94
2023-07-04T09:05:13.370Z,100838.06
2023-07-04T09:07:51.537Z,100836.88
2023-07-04T09:10:29.468Z,100839.03
2023-07-04T09:12:56.612Z,100844.06
2023-07-04T09:15:30.765Z,100834.34
2023-07-04T09:18:20.751Z,100849.72
2023-07-04T09:20:56.361Z,100837.47
2023-07-04T09:23:25.794Z,100840.94
2023-07-04T09:25:55.880Z,100824.13
2023-07-04T09:28:22.777Z,100828.81
2023-07-04T09:30:51.400Z,100837.81
2023-07-04T09:33:19.896Z,100840.81
2023-07-04T09:35:47.690Z,100838.66
2023-07-04T09:38:14.433Z,100841.16
2023-07-04T09:40:45.537Z,100840.72
2023-07-04T09:43:24.507Z,100843.34
2023-07-04T09:45:51.603Z,100834.34
2023-07-04T09:48:25.098Z,100846.22
2023-07-04T09:50:52.259Z,100842.28
2023-07-04T09:53:20.101Z,100839.78
2023-07-04T09:55:59.548Z,100853.59
2023-07-04T09:58:26.625Z,100838.47
2023-07-04T10:01:12.872Z,100828.72
2023-07-04T10:03:40.979Z,100838.22
2023-07-04T10:06:07.944Z,100838.78
2023-07-04T10:08:49.591Z,100837.34
2023-07-04T10:11:26.477Z,100849.94
2023-07-04T10:14:00.501Z,100847.44
2023-07-04T10:16:27.949Z,100849.38
2023-07-04T10:19:03.654Z,100846.72
2023-07-04T10:21:30.480Z,100852.81
2023-07-04T10:23:57.345Z,100847.19
2023-07-04T10:26:25.564Z,100857.06
2023-07-04T10:28:53.317Z,100844.88
2023-07-04T10:31:21.500Z,100832.88
2023-07-04T10:33:52.281Z,100855.28
2023-07-04T10:36:26.911Z,100858.28
2023-07-04T10:38:56.749Z,100846.75
2023-07-04T10:41:32.358Z,100850.31
2023-07-04T10:44:04.564Z,100853.81
2023-07-04T10:46:42.596Z,100854.78
2023-07-04T10:49:16.532Z,100850.97
2023-07-04T10:51:47.570Z,100839.06
2023-07-04T10:54:14.307Z,100859.84
2023-07-04T10:56:45.132Z,100860.47
2023-07-04T10:59:15.351Z,100862.63
2023-07-04T11:01:45.505Z,100859.13
2023-07-04T11:04:18.649Z,100853.72
2023-07-04T11:06:54.258Z,100862.59
2023-07-04T11:09:21.247Z,100855.97
2023-07-04T11:11:52.094Z,100868.84
2023-07-04T11:14:24.662Z,100862.97
2023-07-04T11:16:53.621Z,100861.25
2023-07-04T11:19:23.413Z,100860.50
2023-07-04T11:22:11.501Z,100863.97
2023-07-04T11:24:44.764Z,100861.19
2023-07-04T11:27:15.036Z,100863.41
2023-07-04T11:29:50.835Z,100865.44
2023-07-04T11:32:22.363Z,100873.50
2023-07-04T11:34:51.365Z,100874.09
2023-07-04T11:37:24.378Z,100869.28
2023-07-04T11:39:55.310Z,100863.31
2023-07-04T11:42:38.491Z,100867.16
2023-07-04T11:45:08.647Z,100871.00
2023-07-04T11:47:41.379Z,100874.38
2023-07-04T11:50:13.697Z,100875.34
2023-07-04T11:52:43.273Z,100871.31
2023-07-04T11:55:15.207Z,100874.94
2023-07-04T11:58:16.874Z,100881.47
2023-07-04T12:01:14.416Z,100884.69
2023-07-04T12:03:49.571Z,100883.94
2023-07-04T12:06:39.549Z,100890.56
2023-07-04T12:09:11.365Z,100888.78
2023-07-04T12:11:43.459Z,100891.47
2023-07-04T12:14:14.666Z,100898.59
2023-07-04T12:16:42.608Z,100907.03
2023-07-04T12:19:16.021Z,100891.69
2023-07-04T12:21:43.946Z,100889.56
2023-07-04T12:24:15.590Z,100890.53
2023-07-04T12:26:42.334Z,100875.31
2023-07-04T12:29:16.706Z,100890.97
2023-07-04T12:31:45.351Z,100881.63
2023-07-04T12:34:12.428Z,100880.78
2023-07-04T12:36:39.492Z,100883.22
2023-07-04T12:39:08.352Z,100880.97
2023-07-04T12:41:36.286Z,100868.69
2023-07-04T12:51:45.720Z,100877.94
2023-07-04T12:54:14.577Z,100884.13
2023-07-04T12:56:44.775Z,100888.84
2023-07-04T12:59:32.864Z,100881.13
2023-07-04T13:02:03.465Z,100885.78
2023-07-04T13:04:31.778Z,100880.69
2023-07-04T13:06:58.517Z,100876.88
2023-07-04T13:09:25.226Z,100883.16
2023-07-04T13:11:52.106Z,100872.50
2023-07-04T13:14:24.770Z,100866.47
2023-07-04T13:16:51.655Z,100865.69
2023-07-04T13:19:20.232Z,100871.34
2023-07-04T13:21:49.222Z,100867.91
2023-07-04T13:27:14.292Z,100857.03
2023-07-04T13:34:55.026Z,100862.78
2023-07-04T13:37:24.982Z,100874.25
2023-07-04T13:39:55.343Z,100862.16
2023-07-04T13:42:22.691Z,100863.72
2023-07-04T13:47:19.011Z,100878.63
2023-07-04T13:49:45.686Z,100880.84
2023-07-04T13:52:12.592Z,100876.19
2023-07-04T13:54:40.685Z,100872.75
2023-07-04T13:57:07.470Z,100878.69
2023-07-04T13:59:34.183Z,100884.09
2023-07-04T14:07:00.415Z,100880.97
2023-07-04T14:09:27.241Z,100875.75
2023-07-04T14:11:58.407Z,100879.47
2023-07-04T14:21:53.996Z,100882.03
2023-07-04T14:24:20.815Z,100881.41
2023-07-04T14:26:47.507Z,100887.00
2023-07-04T14:29:15.613Z,100881.53
2023-07-04T14:31:42.389Z,100883.09
2023-07-04T14:34:09.206Z,100889.69
2023-07-04T14:36:36.784Z,100887.34
2023-07-04T14:39:03.831Z,100889.50
2023-07-04T14:44:15.278Z,100877.22
2023-07-04T14:46:44.360Z,100884.38
2023-07-04T14:49:11.884Z,100884.13
2023-07-04T14:51:39.079Z,100890.69
2023-07-04T14:54:19.996Z,100888.84
2023-07-04T14:56:51.755Z,100887.66
2023-07-04T14:59:23.383Z,100883.97
2023-07-04T15:01:55.142Z,100883.81
2023-07-04T15:04:21.877Z,100897.25
2023-07-04T15:06:48.559Z,100896.00
2023-07-04T15:09:15.345Z,100893.72
2023-07-04T15:11:42.023Z,100900.75
2023-07-04T15:14:08.790Z,100885.28
2023-07-04T15:16:35.593Z,100891.53
2023-07-04T15:19:03.800Z,100886.94
2023-07-04T15:21:30.587Z,100892.97
2023-07-04T15:23:57.533Z,100893.63
2023-07-04T15:26:27.738Z,100892.59
2023-07-04T15:28:55.442Z,100895.53
2023-07-04T15:31:22.285Z,100898.53
2023-07-04T15:33:50.777Z,100891.56
2023-07-04T15:36:19.116Z,100895.19
2023-07-04T15:38:46.447Z,100892.88
2023-07-04T15:41:13.117Z,100890.03
2023-07-04T15:43:40.081Z,100895.38
2023-07-04T15:46:08.955Z,100888.63
2023-07-04T15:48:36.056Z,100895.41
2023-07-04T15:51:02.859Z,100905.38
2023-07-04T15:53:31.901Z,100908.41
2023-07-04T15:56:02.599Z,100906.03
2023-07-04T15:58:29.731Z,100912.53
2023-07-04T16:00:57.852Z,100904.09
2023-07-04T16:03:25.370Z,100901.34
2023-07-04T16:05:54.655Z,100901.91
2023-07-04T16:08:22.379Z,100901.66
2023-07-04T16:10:54.542Z,100900.19
2023-07-04T16:13:21.929Z,100895.72
2023-07-04T16:15:48.847Z,100912.28
2023-07-04T16:18:15.805Z,100902.13
2023-07-04T16:20:43.018Z,100908.41
2023-07-04T16:23:11.345Z,100907.84
2023-07-04T16:25:41.881Z,100912.88
2023-07-04T16:28:10.469Z,100912.19
2023-07-04T16:30:37.340Z,100916.78
2023-07-04T16:33:04.295Z,100916.19
2023-07-04T16:35:31.020Z,100919.34
2023-07-04T16:37:57.700Z,100914.28
2023-07-04T16:40:24.546Z,100909.22
2023-07-04T16:42:51.579Z,100920.25
2023-07-04T16:45:19.910Z,100920.59
2023-07-04T16:47:46.864Z,100919.41
2023-07-04T16:50:29.933Z,100927.13
2023-07-04T16:52:58.185Z,100921.72
2023-07-04T16:55:25.029Z,100922.59
2023-07-04T16:57:52.137Z,100921.50
2023-07-04T17:00:20.930Z,100914.66
2023-07-04T17:02:55.187Z,100912.25
2023-07-04T17:05:22.809Z,100922.00
2023-07-04T17:07:49.609Z,100912.78
2023-07-04T17:10:16.622Z,100923.84
2023-07-04T17:12:43.345Z,100923.13
2023-07-04T17:15:19.169Z,100929.59
2023-07-04T17:17:47.894Z,100922.97
2023-07-04T17:20:15.333Z,100921.28
2023-07-04T17:22:42.025Z,100926.91
2023-07-04T17:25:14.687Z,100925.09
2023-07-04T17:27:42.309Z,100919.81
2023-07-04T17:30:11.510Z,100932.31
2023-07-04T17:32:39.174Z,100936.63
2023-07-04T17:35:08.050Z,100936.25
2023-07-04T17:37:38.997Z,100919.78
2023-07-04T17:40:07.509Z,100932.06
2023-07-04T17:42:34.200Z,100943.94
2023-07-04T17:45:07.432Z,100947.66
2023-07-04T17:47:34.264Z,100951.34
2023-07-04T17:50:00.994Z,100948.69
2023-07-04T17:52:29.394Z,100956.84
2023-07-04T17:54:57.648Z,100957.00
2023-07-04T17:57:27.617Z,100960.81
2023-07-04T17:59:55.749Z,100962.41
2023-07-04T18:02:22.672Z,100967.78
2023-07-04T18:04:52.382Z,100960.22
2023-07-04T18:07:19.439Z,100960.91
2023-07-04T18:09:48.592Z,100964.97
2023-07-04T18:12:15.716Z,100973.50
2023-07-04T18:14:42.468Z,100974.19
2023-07-04T18:17:09.228Z,100971.28
2023-07-04T18:19:35.954Z,100978.06
2023-07-04T18:22:02.805Z,100976.63
2023-07-04T18:24:29.672Z,100977.91
2023-07-04T18:26:57.803Z,100981.41
2023-07-04T18:29:24.549Z,100979.75
2023-07-04T18:31:51.450Z,100992.28
2023-07-04T18:34:18.193Z,100988.31
2023-07-04T18:36:46.242Z,100987.44
2023-07-04T18:39:13.035Z,100990.28
2023-07-04T18:41:41.507Z,100994.78
2023-07-04T18:44:11.765Z,100996.53
2023-07-04T18:46:41.869Z,100993.41
2023-07-04T18:49:21.687Z,100999.81
2023-07-04T18:51:48.414Z,101000.50
2023-07-04T18:54:16.258Z,101003.69
2023-07-04T18:56:44.259Z,101005.00
2023-07-04T18:59:17.090Z,101002.91
2023-07-04T19:01:44.617Z,101007.41
2023-07-04T19:04:12.042Z,101011.09
2023-07-04T19:06:42.470Z,101016.84
2023-07-04T19:09:10.370Z,101020.72
2023-07-04T19:11:39.008Z,101024.56
2023-07-04T19:14:09.951Z,101025.44
2023-07-04T19:16:43.429Z,101025.69
2023-07-04T19:19:10.479Z,101035.91
2023-07-04T19:21:38.103Z,101034.28
2023-07-04T19:24:05.514Z,101035.34
2023-07-04T19:26:32.281Z,101038.34
2023-07-04T19:28:58.940Z,101039.44
2023-07-04T19:31:25.868Z,101038.00
2023-07-04T19:33:53.879Z,101048.59
2023-07-04T19:36:22.854Z,101049.03
2023-07-04T19:38:49.526Z,101059.41
2023-07-04T19:41:16.257Z,101059.88
2023-07-04T19:43:43.023Z,101058.41
2023-07-04T19:46:10.018Z,101065.19
2023-07-04T19:48:38.108Z,101062.66
2023-07-04T19:51:08.136Z,101058.44
2023-07-04T19:53:37.971Z,101059.69
2023-07-04T19:56:07.542Z,101062.00
2023-07-04T19:58:34.737Z,101070.44
2023-07-04T20:01:05.614Z,101066.19
2023-07-04T20:03:33.886Z,101073.59
2023-07-04T20:06:01.247Z,101067.22
2023-07-04T20:08:29.738Z,101070.16
2023-07-04T20:10:56.908Z,101067.63
2023-07-04T20:13:24.456Z,101074.16
2023-07-04T20:15:52.045Z,101062.50
2023-07-04T20:18:19.630Z,101062.69
2023-07-04T20:20:47.819Z,101063.06
2023-07-04T20:23:14.550Z,101066.00
2023-07-04T20:25:43.121Z,101065.31
2023-07-04T20:28:10.663Z,101066.09
2023-07-04T20:30:39.264Z,101064.56
2023-07-04T20:33:07.098Z,101058.41
2023-07-04T20:35:34.298Z,101063.88
2023-07-04T20:38:02.060Z,101059.19
2023-07-04T20:40:29.594Z,101055.75
2023-07-04T20:42:59.545Z,101050.44
2023-07-04T20:45:26.419Z,101057.56
2023-07-04T20:47:53.164Z,101050.16
2023-07-04T20:50:20.804Z,101054.53
2023-07-04T20:52:47.509Z,101049.84
2023-07-04T20:55:14.889Z,101054.25
2023-07-04T20:57:41.590Z,101060.47
2023-07-04T21:00:10.667Z,101058.50
2023-07-04T21:02:37.588Z,101065.44
2023-07-04T21:05:04.689Z,101054.44
2023-07-04T21:07:31.421Z,101050.59
2023-07-04T21:09:58.226Z,101057.69
2023-07-04T21:12:25.275Z,101056.59
2023-07-04T21:14:51.986Z,101061.81
2023-07-04T21:17:20.273Z,101067.88
2023-07-04T21:19:47.007Z,101058.53
2023-07-04T21:22:13.798Z,101057.44
2023-07-04T21:24:40.552Z,101058.00
2023-07-04T21:27:07.598Z,101052.31
2023-07-04T21:29:34.349Z,101049.28
2023-07-04T21:32:01.091Z,101055.53
2023-07-04T21:34:29.208Z,101063.47
2023-07-04T21:36:55.894Z,101060.50
2023-07-04T21:39:22.670Z,101057.44
2023-07-04T21:41:49.394Z,101052.72
2023-07-04T21:44:16.133Z,101059.63
2023-07-04T21:46:42.894Z,101056.59
2023-07-04T21:49:11.299Z,101057.19
2023-07-04T21:51:39.373Z,101056.25
2023-07-04T21:54:06.071Z,101057.47
2023-07-04T21:56:33.130Z,101056.84
2023-07-04T21:59:00.765Z,101055.53
2023-07-04T22:01:27.577Z,101065.16
2023-07-04T22:03:54.382Z,101064.69
2023-07-04T22:06:21.112Z,101071.53
2023-07-04T22:08:49.274Z,101075.69
2023-07-04T22:11:16.725Z,101076.25
2023-07-04T22:13:45.421Z,101076.63
2023-07-04T22:16:14.990Z,101070.88
2023-07-04T22:18:42.156Z,101081.34
2023-07-04T22:21:10.061Z,101079.84
2023-07-04T22:23:37.625Z,101075.78
2023-07-04T22:26:06.379Z,101070.69
2023-07-04T22:28:33.272Z,101067.47
2023-07-04T22:31:01.536Z,101067.66
2023-07-04T22:33:29.707Z,101074.53
2023-07-04T22:35:58.033Z,101065.22
2023-07-04T22:38:25.121Z,101063.69
2023-07-04T22:40:52.465Z,101068.69
2023-07-04T22:43:20.915Z,101061.00
2023-07-04T22:45:50.901Z,101052.16
2023-07-04T22:48:18.197Z,101060.72
2023-07-04T22:50:44.855Z,101055.63
2023-07-04T22:53:11.779Z,101053.28
2023-07-04T22:55:40.162Z,101057.41
2023-07-04T22:58:06.961Z,101050.41
2023-07-04T23:00:36.788Z,101048.94
2023-07-04T23:03:03.978Z,101040.44
2023-07-04T23:05:30.913Z,101037.41
2023-07-04T23:07:57.998Z,101039.47
2023-07-04T23:10:24.973Z,101041.69
2023-07-04T23:12:51.718Z,101037.47
2023-07-04T23:15:18.518Z,101043.97
2023-07-04T23:17:46.905Z,101035.97
2023-07-04T23:20:13.773Z,101032.56
2023-07-04T23:22:40.658Z,101036.53
2023-07-04T23:25:08.904Z,101035.84
2023-07-04T23:27:35.701Z,101047.13
2023-07-04T23:30:03.054Z,101038.25
2023-07-04T23:32:29.826Z,101041.38
2023-07-04T23:34:58.302Z,101049.94
2023-07-04T23:37:25.543Z,101046.53
2023-07-04T23:39:52.403Z,101042.28
2023-07-04T23:42:19.414Z,101038.88
2023-07-04T23:44:46.103Z,101039.25
2023-07-04T23:47:12.931Z,101044.03
2023-07-04T23:49:39.865Z,101038.78
2023-07-04T23:52:08.158Z,101047.13
2023-07-04T23:54:34.861Z,101037.63
2023-07-04T23:57:01.617Z,101039.50
2023-07-04T23:59:28.361Z,101031.66
